createdAt,value
2018-08-25T00:01:58.273Z,95434.11
2018-08-25T00:04:33.314Z,95429.80
2018-08-25T00:07:08.358Z,95432.12
2018-08-25T00:09:43.172Z,95428.29
2018-08-25T00:12:17.732Z,95429.95
2018-08-25T00:14:52.141Z,95431.04
2018-08-25T00:17:26.735Z,95419.77
2018-08-25T00:20:01.884Z,95421.30
2018-08-25T00:22:36.570Z,95419.91
2018-08-25T00:25:11.894Z,95420.65
2018-08-25T00:27:46.648Z,95422.67
2018-08-25T00:30:26.474Z,95418.00
2018-08-25T00:33:00.982Z,95415.39
2018-08-25T00:35:35.327Z,95416.86
2018-08-25T00:38:10.146Z,95425.66
2018-08-25T00:40:45.422Z,95427.13
2018-08-25T00:43:20.380Z,95425.81
2018-08-25T00:45:54.716Z,95423.92
2018-08-25T00:48:29.266Z,95424.50
2018-08-25T00:51:04.317Z,95423.84
2018-08-25T00:53:38.978Z,95413.87
2018-08-25T00:56:14.048Z,95411.38
2018-08-25T00:58:48.752Z,95417.30
2018-08-25T01:01:23.187Z,95415.41
2018-08-25T01:03:58.460Z,95411.69
2018-08-25T01:06:33.038Z,95411.69
2018-08-25T01:09:09.123Z,95415.02
2018-08-25T01:11:43.791Z,95413.05
2018-08-25T01:14:18.720Z,95416.03
2018-08-25T01:16:53.198Z,95410.52
2018-08-25T01:19:28.219Z,95423.05
2018-08-25T01:22:02.859Z,95412.48
2018-08-25T01:24:37.692Z,95407.75
2018-08-25T01:27:12.316Z,95409.06
2018-08-25T01:29:46.840Z,95408.39
2018-08-25T01:32:21.280Z,95408.17
2018-08-25T01:34:56.004Z,95413.19
2018-08-25T01:37:30.597Z,95410.86
2018-08-25T01:40:05.657Z,95413.63
2018-08-25T01:42:40.468Z,95418.88
2018-08-25T01:45:14.840Z,95413.34
2018-08-25T01:47:49.296Z,95416.70
2018-08-25T01:50:23.700Z,95419.25
2018-08-25T01:52:58.124Z,95419.12
2018-08-25T01:55:32.747Z,95423.41
2018-08-25T01:58:08.015Z,95419.32
2018-08-25T02:00:42.612Z,95415.39
2018-08-25T02:03:17.127Z,95413.21
2018-08-25T02:05:51.451Z,95413.78
2018-08-25T02:08:25.803Z,95407.37
2018-08-25T02:11:00.590Z,95404.45
2018-08-25T02:13:35.027Z,95400.81
2018-08-25T02:16:09.835Z,95407.53
2018-08-25T02:18:44.527Z,95400.08
2018-08-25T02:21:19.627Z,95401.32
2018-08-25T02:23:53.934Z,95403.30
2018-08-25T02:26:28.479Z,95400.45
2018-08-25T02:29:03.323Z,95390.90
2018-08-25T02:31:37.752Z,95387.41
2018-08-25T02:34:12.663Z,95395.72
2018-08-25T02:36:47.757Z,95393.39
2018-08-25T02:39:22.419Z,95391.27
2018-08-25T02:41:56.824Z,95390.90
2018-08-25T02:44:31.403Z,95393.74
2018-08-25T02:47:05.902Z,95381.43
2018-08-25T02:49:40.629Z,95391.78
2018-08-25T02:52:15.575Z,95391.34
2018-08-25T02:54:50.050Z,95389.61
2018-08-25T02:57:24.567Z,95389.67
2018-08-25T02:59:59.484Z,95385.09
2018-08-25T03:02:33.991Z,95387.14
2018-08-25T03:05:08.677Z,95383.62
2018-08-25T03:07:43.880Z,95388.06
2018-08-25T03:10:18.560Z,95390.07
2018-08-25T03:12:52.942Z,95395.36
2018-08-25T03:15:27.228Z,95393.47
2018-08-25T03:18:01.912Z,95392.23
2018-08-25T03:20:36.893Z,95395.94
2018-08-25T03:23:11.279Z,95397.41
2018-08-25T03:25:46.248Z,95400.27
2018-08-25T03:28:20.794Z,95397.23
2018-08-25T03:30:55.248Z,95398.14
2018-08-25T03:33:29.640Z,95387.04
2018-08-25T03:36:04.251Z,95390.97
2018-08-25T03:38:38.966Z,95391.61
2018-08-25T03:41:13.536Z,95392.09
2018-08-25T03:43:47.969Z,95388.63
2018-08-25T03:46:22.707Z,95395.58
2018-08-25T03:48:57.216Z,95390.88
2018-08-25T03:51:31.972Z,95393.30
2018-08-25T03:54:06.971Z,95392.50
2018-08-25T03:56:41.984Z,95395.13
2018-08-25T03:59:16.618Z,95399.54
2018-08-25T04:01:51.283Z,95394.16
2018-08-25T04:04:25.791Z,95376.77
2018-08-25T04:07:00.669Z,95361.95
2018-08-25T04:09:35.047Z,95365.77
2018-08-25T04:12:09.761Z,95357.01
2018-08-25T04:14:44.942Z,95356.14
2018-08-25T04:17:19.953Z,95356.09
2018-08-25T04:19:54.695Z,95368.31
2018-08-25T04:22:29.603Z,95375.67
2018-08-25T04:25:04.773Z,95367.19
2018-08-25T04:27:39.106Z,95367.87
2018-08-25T04:30:13.492Z,95367.64
2018-08-25T04:32:48.272Z,95365.08
2018-08-25T04:35:22.924Z,95366.39
2018-08-25T04:37:57.516Z,95370.03
2018-08-25T04:40:32.340Z,95372.66
2018-08-25T04:43:07.216Z,95376.37
2018-08-25T04:45:41.872Z,95382.52
2018-08-25T04:48:16.160Z,95388.48
2018-08-25T04:50:50.767Z,95380.11
2018-08-25T04:53:25.336Z,95379.50
2018-08-25T04:56:00.404Z,95382.78
2018-08-25T04:58:35.251Z,95378.70
2018-08-25T05:01:09.831Z,95377.68
2018-08-25T05:03:44.384Z,95375.30
2018-08-25T05:06:19.419Z,95371.88
2018-08-25T05:08:54.339Z,95385.49
2018-08-25T05:11:28.621Z,95381.34
2018-08-25T05:14:02.953Z,95378.38
2018-08-25T05:16:37.301Z,95378.09
2018-08-25T05:19:11.631Z,95383.56
2018-08-25T05:21:46.396Z,95382.38
2018-08-25T05:24:21.721Z,95379.47
2018-08-25T05:26:56.428Z,95378.75
2018-08-25T05:29:30.808Z,95377.66
2018-08-25T05:32:05.668Z,95384.28
2018-08-25T05:34:40.323Z,95380.92
2018-08-25T05:37:14.932Z,95386.02
2018-08-25T05:39:49.740Z,95380.13
2018-08-25T05:42:24.204Z,95393.17
2018-08-25T05:44:59.051Z,95391.86
2018-08-25T05:47:33.532Z,95389.47
2018-08-25T05:50:08.494Z,95394.70
2018-08-25T05:52:43.500Z,95390.70
2018-08-25T05:55:18.916Z,95389.87
2018-08-25T05:57:53.487Z,95389.97
2018-08-25T06:00:28.484Z,95388.35
2018-08-25T06:03:03.211Z,95385.61
2018-08-25T06:05:37.576Z,95386.98
2018-08-25T06:08:12.053Z,95392.01
2018-08-25T06:10:47.179Z,95385.14
2018-08-25T06:13:22.012Z,95389.08
2018-08-25T06:15:57.188Z,95387.92
2018-08-25T06:18:32.240Z,95390.11
2018-08-25T06:21:07.127Z,95395.27
2018-08-25T06:23:41.431Z,95388.58
2018-08-25T06:26:15.982Z,95392.19
2018-08-25T06:28:50.723Z,95381.91
2018-08-25T06:31:25.601Z,95383.87
2018-08-25T06:34:00.364Z,95389.02
2018-08-25T06:36:34.987Z,95385.28
2018-08-25T06:39:10.683Z,95391.72
2018-08-25T06:41:45.239Z,95388.63
2018-08-25T06:44:19.824Z,95388.77
2018-08-25T06:46:54.947Z,95385.70
2018-08-25T06:49:29.249Z,95385.61
2018-08-25T06:52:04.239Z,95387.51
2018-08-25T06:54:38.808Z,95385.62
2018-08-25T06:57:13.168Z,95381.50
2018-08-25T06:59:47.959Z,95383.90
2018-08-25T07:02:22.580Z,95382.36
2018-08-25T07:04:57.376Z,95383.02
2018-08-25T07:07:32.317Z,95389.55
2018-08-25T07:10:07.451Z,95379.92
2018-08-25T07:12:42.275Z,95384.92
2018-08-25T07:15:17.116Z,95379.92
2018-08-25T07:17:51.619Z,95376.07
2018-08-25T07:20:26.197Z,95380.70
2018-08-25T07:23:00.615Z,95381.34
2018-08-25T07:25:36.121Z,95378.72
2018-08-25T07:28:11.093Z,95377.31
2018-08-25T07:30:45.789Z,95386.05
2018-08-25T07:33:20.356Z,95388.74
2018-08-25T07:35:54.832Z,95379.81
2018-08-25T07:38:29.336Z,95375.36
2018-08-25T07:41:03.641Z,95372.95
2018-08-25T07:43:38.628Z,95381.09
2018-08-25T07:46:13.325Z,95380.77
2018-08-25T07:48:48.215Z,95368.04
2018-08-25T07:51:22.678Z,95365.89
2018-08-25T07:53:57.536Z,95369.02
2018-08-25T07:56:31.952Z,95367.46
2018-08-25T07:59:06.771Z,95371.77
2018-08-25T08:01:41.475Z,95363.31
2018-08-25T08:04:15.971Z,95363.52
2018-08-25T08:06:50.761Z,95359.36
2018-08-25T08:09:25.490Z,95361.36
2018-08-25T08:12:00.774Z,95363.93
2018-08-25T08:14:35.715Z,95371.39
2018-08-25T08:17:10.119Z,95371.17
2018-08-25T08:19:44.487Z,95364.73
2018-08-25T08:22:18.975Z,95363.31
2018-08-25T08:24:54.228Z,95370.31
2018-08-25T08:27:29.048Z,95365.84
2018-08-25T08:30:03.642Z,95359.50
2018-08-25T08:32:38.408Z,95351.16
2018-08-25T08:35:13.524Z,95352.97
2018-08-25T08:37:48.171Z,95351.92
2018-08-25T08:40:23.186Z,95360.94
2018-08-25T08:42:58.332Z,95364.27
2018-08-25T08:45:32.726Z,95356.47
2018-08-25T08:48:07.732Z,95359.91
2018-08-25T08:50:42.261Z,95362.02
2018-08-25T08:53:16.942Z,95363.09
2018-08-25T08:55:51.664Z,95366.34
2018-08-25T08:58:26.687Z,95372.29
2018-08-25T09:01:01.232Z,95361.03
2018-08-25T09:03:35.987Z,95360.08
2018-08-25T09:06:10.616Z,95367.46
2018-08-25T09:08:45.115Z,95371.94
2018-08-25T09:11:19.614Z,95377.38
2018-08-25T09:13:54.564Z,95381.42
2018-08-25T09:16:28.851Z,95372.41
2018-08-25T09:19:03.905Z,95368.06
2018-08-25T09:21:38.270Z,95369.16
2018-08-25T09:24:12.745Z,95372.56
2018-08-25T09:26:48.104Z,95369.92
2018-08-25T09:29:22.635Z,95370.38
2018-08-25T09:31:57.476Z,95373.32
2018-08-25T09:34:32.572Z,95366.66
2018-08-25T09:37:07.297Z,95374.09
2018-08-25T09:39:41.944Z,95364.13
2018-08-25T09:42:16.517Z,95358.45
2018-08-25T09:44:51.059Z,95352.42
2018-08-25T09:47:25.607Z,95355.33
2018-08-25T09:50:00.024Z,95351.77
2018-08-25T09:52:34.936Z,95348.30
2018-08-25T09:55:09.550Z,95359.30
2018-08-25T09:57:44.524Z,95354.27
2018-08-25T10:00:19.156Z,95354.59
2018-08-25T10:02:53.936Z,95355.25
2018-08-25T10:05:28.956Z,95348.62
2018-08-25T10:08:04.034Z,95356.41
2018-08-25T10:10:38.423Z,95355.23
2018-08-25T10:13:13.317Z,95344.84
2018-08-25T10:15:47.752Z,95342.41
2018-08-25T10:18:22.638Z,95347.66
2018-08-25T10:20:57.211Z,95351.14
2018-08-25T10:23:31.743Z,95356.08
2018-08-25T10:26:06.608Z,95351.22
2018-08-25T10:28:41.524Z,95347.20
2018-08-25T10:31:16.412Z,95359.33
2018-08-25T10:33:51.406Z,95351.93
2018-08-25T10:36:25.771Z,95358.58
2018-08-25T10:39:01.434Z,95349.53
2018-08-25T10:41:35.987Z,95345.72
2018-08-25T10:44:10.658Z,95346.79
2018-08-25T10:46:45.063Z,95341.56
2018-08-25T10:49:19.720Z,95347.12
2018-08-25T10:51:54.483Z,95348.48
2018-08-25T10:54:29.524Z,95345.11
2018-08-25T10:57:04.250Z,95347.33
2018-08-25T10:59:38.682Z,95343.03
2018-08-25T11:02:19.751Z,95334.08
2018-08-25T11:04:54.907Z,95342.70
2018-08-25T11:07:29.504Z,95334.94
2018-08-25T11:10:04.148Z,95339.41
2018-08-25T11:12:38.699Z,95326.41
2018-08-25T11:15:13.741Z,95324.28
2018-08-25T11:17:48.855Z,95331.04
2018-08-25T11:20:23.948Z,95325.67
2018-08-25T11:22:58.391Z,95321.09
2018-08-25T11:25:33.392Z,95320.66
2018-08-25T11:28:08.339Z,95326.06
2018-08-25T11:30:42.644Z,95318.64
2018-08-25T11:33:16.892Z,95315.35
2018-08-25T11:35:51.995Z,95316.62
2018-08-25T11:38:26.431Z,95318.84
2018-08-25T11:41:01.368Z,95321.11
2018-08-25T11:43:36.235Z,95319.19
2018-08-25T11:46:10.915Z,95316.23
2018-08-25T11:48:45.231Z,95319.52
2018-08-25T11:51:20.031Z,95318.05
2018-08-25T11:53:54.629Z,95310.92
2018-08-25T11:56:29.269Z,95308.19
2018-08-25T11:59:04.023Z,95313.50
2018-08-25T12:01:38.919Z,95315.69
2018-08-25T12:04:13.812Z,95312.37
2018-08-25T12:06:48.208Z,95304.28
2018-08-25T12:09:22.676Z,95299.77
2018-08-25T12:11:57.592Z,95298.05
2018-08-25T12:14:32.719Z,95297.70
2018-08-25T12:17:07.171Z,95301.23
2018-08-25T12:19:42.210Z,95305.55
2018-08-25T12:22:16.835Z,95305.25
2018-08-25T12:24:51.380Z,95304.64
2018-08-25T12:27:26.199Z,95311.88
2018-08-25T12:30:00.588Z,95318.88
2018-08-25T12:32:35.293Z,95308.94
2018-08-25T12:35:09.584Z,95308.00
2018-08-25T12:37:44.452Z,95306.36
2018-08-25T12:40:19.723Z,95314.66
2018-08-25T12:42:54.305Z,95316.30
2018-08-25T12:45:28.739Z,95302.45
2018-08-25T12:48:03.535Z,95300.30
2018-08-25T12:50:38.567Z,95299.98
2018-08-25T12:53:12.926Z,95305.30
2018-08-25T12:55:47.531Z,95314.28
2018-08-25T12:58:22.267Z,95312.91
2018-08-25T13:00:56.899Z,95316.25
2018-08-25T13:03:31.420Z,95321.07
2018-08-25T13:06:06.856Z,95334.13
2018-08-25T13:08:41.947Z,95335.15
2018-08-25T13:11:16.684Z,95345.88
2018-08-25T13:13:51.327Z,95344.48
2018-08-25T13:16:25.732Z,95347.36
2018-08-25T13:19:01.506Z,95339.30
2018-08-25T13:21:36.179Z,95341.29
2018-08-25T13:24:10.573Z,95343.30
2018-08-25T13:26:45.392Z,95348.71
2018-08-25T13:29:19.879Z,95348.16
2018-08-25T13:31:54.473Z,95343.14
2018-08-25T13:34:28.836Z,95347.29
2018-08-25T13:37:03.797Z,95346.34
2018-08-25T13:39:38.366Z,95344.61
2018-08-25T13:42:13.083Z,95346.72
2018-08-25T13:44:47.429Z,95350.38
2018-08-25T13:47:22.088Z,95351.05
2018-08-25T13:49:57.317Z,95353.86
2018-08-25T13:52:32.183Z,95358.91
2018-08-25T13:55:07.343Z,95365.94
2018-08-25T13:57:42.021Z,95376.16
2018-08-25T14:00:16.848Z,95368.77
2018-08-25T14:02:51.352Z,95369.38
2018-08-25T14:05:26.672Z,95368.73
2018-08-25T14:08:01.144Z,95366.94
2018-08-25T14:10:35.995Z,95365.34
2018-08-25T14:13:10.719Z,95364.95
2018-08-25T14:15:44.971Z,95369.64
2018-08-25T14:18:19.737Z,95370.03
2018-08-25T14:20:54.705Z,95368.50
2018-08-25T14:23:29.432Z,95371.20
2018-08-25T14:26:04.131Z,95378.19
2018-08-25T14:28:38.404Z,95380.31
2018-08-25T14:31:13.019Z,95372.09
2018-08-25T14:33:47.924Z,95372.34
2018-08-25T14:36:22.675Z,95371.91
2018-08-25T14:38:57.303Z,95363.20
2018-08-25T14:41:31.748Z,95370.14
2018-08-25T14:44:06.776Z,95374.34
2018-08-25T14:46:41.720Z,95365.77
2018-08-25T14:49:16.495Z,95368.59
2018-08-25T14:51:51.495Z,95367.31
2018-08-25T14:54:26.337Z,95360.54
2018-08-25T14:57:00.875Z,95364.12
2018-08-25T14:59:35.383Z,95367.61
2018-08-25T15:02:10.231Z,95377.16
2018-08-25T15:04:44.935Z,95375.95
2018-08-25T15:07:19.775Z,95380.46
2018-08-25T15:09:54.171Z,95383.86
2018-08-25T15:12:28.612Z,95378.88
2018-08-25T15:15:03.143Z,95380.23
2018-08-25T15:17:38.243Z,95378.99
2018-08-25T15:20:13.211Z,95378.62
2018-08-25T15:22:47.704Z,95383.25
2018-08-25T15:25:22.268Z,95384.81
2018-08-25T15:27:56.692Z,95386.45
2018-08-25T15:30:31.476Z,95387.39
2018-08-25T15:33:06.239Z,95387.14
2018-08-25T15:35:42.334Z,95392.45
2018-08-25T15:38:16.786Z,95390.19
2018-08-25T15:40:51.319Z,95401.18
2018-08-25T15:43:25.873Z,95392.20
2018-08-25T15:46:00.279Z,95387.43
2018-08-25T15:48:35.219Z,95391.54
2018-08-25T15:51:09.583Z,95390.34
2018-08-25T15:53:43.868Z,95394.02
2018-08-25T15:56:18.332Z,95399.63
2018-08-25T15:58:53.151Z,95400.20
2018-08-25T16:01:27.707Z,95395.69
2018-08-25T16:04:02.455Z,95391.62
2018-08-25T16:06:37.146Z,95395.28
2018-08-25T16:09:11.963Z,95398.02
2018-08-25T16:11:47.287Z,95398.92
2018-08-25T16:14:21.920Z,95404.95
2018-08-25T16:16:56.912Z,95410.09
2018-08-25T16:19:31.474Z,95410.52
2018-08-25T16:22:07.060Z,95407.69
2018-08-25T16:24:41.853Z,95405.34
2018-08-25T16:27:17.009Z,95407.77
2018-08-25T16:29:51.615Z,95407.08
2018-08-25T16:32:26.366Z,95402.08
2018-08-25T16:35:00.837Z,95407.23
2018-08-25T16:37:35.562Z,95403.53
2018-08-25T16:40:10.317Z,95402.94
2018-08-25T16:42:45.719Z,95403.34
2018-08-25T16:45:20.752Z,95402.66
2018-08-25T16:47:55.643Z,95411.12
2018-08-25T16:50:30.264Z,95413.81
2018-08-25T16:53:05.776Z,95416.56
2018-08-25T16:55:40.606Z,95413.95
2018-08-25T16:58:15.120Z,95411.97
2018-08-25T17:00:49.592Z,95422.39
2018-08-25T17:03:24.462Z,95417.29
2018-08-25T17:05:58.916Z,95416.06
2018-08-25T17:08:33.631Z,95411.17
2018-08-25T17:11:08.928Z,95419.23
2018-08-25T17:13:43.416Z,95421.59
2018-08-25T17:16:18.452Z,95427.13
2018-08-25T17:18:53.316Z,95426.33
2018-08-25T17:21:28.072Z,95431.57
2018-08-25T17:24:02.359Z,95440.05
2018-08-25T17:26:37.312Z,95438.41
2018-08-25T17:29:11.939Z,95440.21
2018-08-25T17:31:46.675Z,95436.42
2018-08-25T17:34:21.076Z,95434.95
2018-08-25T17:36:55.520Z,95439.39
2018-08-25T17:39:30.315Z,95441.03
2018-08-25T17:42:05.516Z,95443.44
2018-08-25T17:44:39.904Z,95447.31
2018-08-25T17:47:14.195Z,95444.11
2018-08-25T17:49:48.701Z,95447.95
2018-08-25T17:52:23.139Z,95447.95
2018-08-25T17:54:58.003Z,95454.28
2018-08-25T17:57:32.916Z,95456.51
2018-08-25T18:00:07.976Z,95455.08
2018-08-25T18:02:43.086Z,95466.59
2018-08-25T18:05:17.848Z,95461.45
2018-08-25T18:07:52.391Z,95461.16
2018-08-25T18:10:27.308Z,95471.95
2018-08-25T18:13:01.672Z,95475.57
2018-08-25T18:15:36.859Z,95480.17
2018-08-25T18:18:12.111Z,95480.13
2018-08-25T18:20:46.917Z,95483.92
2018-08-25T18:23:22.075Z,95485.97
2018-08-25T18:25:57.207Z,95480.83
2018-08-25T18:28:31.720Z,95480.23
2018-08-25T18:31:06.192Z,95486.66
2018-08-25T18:33:40.715Z,95485.26
2018-08-25T18:36:15.488Z,95489.00
2018-08-25T18:38:50.898Z,95489.70
2018-08-25T18:41:25.796Z,95492.41
2018-08-25T18:44:00.829Z,95487.59
2018-08-25T18:46:35.367Z,95490.00
2018-08-25T18:49:09.871Z,95493.84
2018-08-25T18:51:44.959Z,95495.05
2018-08-25T18:54:20.279Z,95495.23
2018-08-25T18:56:54.896Z,95500.27
2018-08-25T18:59:29.595Z,95500.09
2018-08-25T19:02:04.393Z,95501.08
2018-08-25T19:04:39.403Z,95515.56
2018-08-25T19:07:14.436Z,95509.31
2018-08-25T19:09:50.307Z,95507.72
2018-08-25T19:12:24.970Z,95511.44
2018-08-25T19:14:59.336Z,95509.21
2018-08-25T19:17:33.698Z,95508.11
2018-08-25T19:20:08.244Z,95507.61
2018-08-25T19:22:42.768Z,95507.70
2018-08-25T19:25:17.842Z,95511.53
2018-08-25T19:27:52.301Z,95512.33
2018-08-25T19:30:26.705Z,95516.75
2018-08-25T19:33:01.975Z,95518.27
2018-08-25T19:35:36.947Z,95518.75
2018-08-25T19:38:11.879Z,95521.79
2018-08-25T19:40:46.668Z,95518.67
2018-08-25T19:43:22.015Z,95521.66
2018-08-25T19:45:56.428Z,95519.37
2018-08-25T19:48:30.884Z,95522.28
2018-08-25T19:51:05.207Z,95522.98
2018-08-25T19:53:39.835Z,95523.40
2018-08-25T19:56:14.459Z,95524.89
2018-08-25T19:58:48.939Z,95521.89
2018-08-25T20:01:23.299Z,95525.90
2018-08-25T20:03:58.150Z,95532.02
2018-08-25T20:06:32.976Z,95531.84
2018-08-25T20:09:08.075Z,95527.51
2018-08-25T20:11:42.723Z,95527.81
2018-08-25T20:14:17.331Z,95532.93
2018-08-25T20:16:52.136Z,95532.03
2018-08-25T20:19:27.207Z,95529.72
2018-08-25T20:22:01.692Z,95532.93
2018-08-25T20:24:36.171Z,95533.63
2018-08-25T20:27:10.946Z,95527.51
2018-08-25T20:29:45.854Z,95538.97
2018-08-25T20:32:20.524Z,95538.36
2018-08-25T20:34:55.124Z,95541.78
2018-08-25T20:37:30.056Z,95533.75
2018-08-25T20:40:04.823Z,95546.49
2018-08-25T20:42:39.608Z,95542.48
2018-08-25T20:45:14.032Z,95548.53
2018-08-25T20:47:48.686Z,95548.21
2018-08-25T20:50:23.140Z,95549.31
2018-08-25T20:52:57.798Z,95546.11
2018-08-25T20:55:32.169Z,95548.53
2018-08-25T20:58:07.048Z,95551.25
2018-08-25T21:00:41.858Z,95545.70
2018-08-25T21:03:16.615Z,95553.94
2018-08-25T21:05:51.300Z,95548.92
2018-08-25T21:08:26.722Z,95549.81
2018-08-25T21:11:01.005Z,95545.90
2018-08-25T21:13:35.823Z,95552.84
2018-08-25T21:16:10.455Z,95564.41
2018-08-25T21:18:45.834Z,95568.02
2018-08-25T21:21:20.734Z,95571.41
2018-08-25T21:23:55.303Z,95571.09
2018-08-25T21:26:30.152Z,95572.03
2018-08-25T21:29:04.519Z,95577.62
2018-08-25T21:31:39.022Z,95579.16
2018-08-25T21:34:13.462Z,95576.16
2018-08-25T21:36:47.899Z,95574.35
2018-08-25T21:39:22.217Z,95573.30
2018-08-25T21:41:56.979Z,95585.70
2018-08-25T21:44:31.533Z,95589.89
2018-08-25T21:47:06.207Z,95581.97
2018-08-25T21:49:40.764Z,95576.70
2018-08-25T21:52:15.421Z,95569.23
2018-08-25T21:54:50.483Z,95569.67
2018-08-25T21:57:24.975Z,95570.33
2018-08-25T21:59:59.381Z,95572.94
2018-08-25T22:02:33.764Z,95581.88
2018-08-25T22:05:08.592Z,95573.75
2018-08-25T22:07:43.777Z,95579.06
2018-08-25T22:10:18.161Z,95580.32
2018-08-25T22:12:53.111Z,95586.14
2018-08-25T22:15:27.619Z,95580.76
2018-08-25T22:18:02.071Z,95578.56
2018-08-25T22:20:36.740Z,95572.95
2018-08-25T22:23:11.411Z,95581.09
2018-08-25T22:25:46.176Z,95576.37
2018-08-25T22:28:20.611Z,95578.31
2018-08-25T22:30:55.221Z,95582.14
2018-08-25T22:33:29.789Z,95569.84
2018-08-25T22:36:04.752Z,95578.47
2018-08-25T22:38:39.140Z,95573.23
2018-08-25T22:41:13.496Z,95574.04
2018-08-25T22:43:48.114Z,95573.41
2018-08-25T22:46:22.856Z,95577.10
2018-08-25T22:48:57.567Z,95577.10
2018-08-25T22:51:32.241Z,95578.91
2018-08-25T22:54:07.917Z,95578.11
2018-08-25T22:56:42.525Z,95575.28
2018-08-25T22:59:17.000Z,95574.28
2018-08-25T23:01:53.270Z,95571.06
2018-08-25T23:04:27.755Z,95567.77
2018-08-25T23:07:02.271Z,95564.95
2018-08-25T23:09:37.295Z,95567.77
2018-08-25T23:12:12.038Z,95569.97
2018-08-25T23:14:46.853Z,95569.78
2018-08-25T23:17:21.843Z,95577.00
2018-08-25T23:19:57.329Z,95569.58
2018-08-25T23:22:32.279Z,95578.41
2018-08-25T23:25:06.713Z,95574.67
2018-08-25T23:27:41.040Z,95580.50
2018-08-25T23:30:15.520Z,95568.56
2018-08-25T23:32:50.744Z,95568.66
2018-08-25T23:35:25.080Z,95569.82
2018-08-25T23:37:59.762Z,95574.54
2018-08-25T23:40:34.517Z,95572.93
2018-08-25T23:43:09.308Z,95571.13
2018-08-25T23:45:44.260Z,95569.11
2018-08-25T23:48:19.020Z,95578.34
2018-08-25T23:50:53.476Z,95567.80
2018-08-25T23:53:28.492Z,95566.50
2018-08-25T23:56:03.815Z,95560.28
2018-08-25T23:58:38.275Z,95561.59
